createdAt,value
2023-01-09T00:07:30.840Z,0.00
2023-01-09T00:17:38.419Z,0.00
2023-01-09T00:27:45.130Z,0.00
2023-01-09T00:37:52.535Z,0.00
2023-01-09T00:47:59.398Z,0.00
2023-01-09T00:58:06.289Z,0.00
2023-01-09T01:08:13.426Z,0.00
2023-01-09T01:18:20.105Z,0.00
2023-01-09T01:28:27.483Z,0.00
2023-01-09T01:38:34.586Z,0.00
2023-01-09T01:48:41.555Z,0.00
2023-01-09T01:58:48.699Z,0.00
2023-01-09T02:08:55.331Z,0.00
2023-01-09T02:19:02.457Z,0.00
2023-01-09T02:29:09.589Z,0.00
2023-01-09T02:39:16.784Z,0.00
2023-01-09T02:49:23.366Z,0.00
2023-01-09T02:59:30.814Z,0.00
2023-01-09T03:09:37.435Z,0.00
2023-01-09T03:19:44.767Z,0.00
2023-01-09T03:29:51.778Z,0.00
2023-01-09T03:39:58.958Z,0.00
2023-01-09T03:50:06.126Z,0.00
2023-01-09T04:00:12.934Z,0.00
2023-01-09T04:10:20.350Z,0.00
2023-01-09T04:20:27.403Z,0.00
2023-01-09T04:30:35.170Z,0.00
2023-01-09T04:40:41.986Z,0.00
2023-01-09T04:50:49.343Z,0.00
2023-01-09T05:00:56.538Z,0.00
2023-01-09T05:11:04.376Z,44.00
2023-01-09T05:21:10.959Z,44.00
2023-01-09T05:31:18.184Z,44.00
2023-01-09T05:41:25.210Z,44.00
2023-01-09T05:51:32.704Z,44.00
2023-01-09T06:01:39.811Z,44.00
2023-01-09T06:11:46.630Z,44.00
2023-01-09T06:21:53.893Z,44.00
2023-01-09T06:32:01.067Z,44.00
2023-01-09T06:42:09.066Z,44.00
2023-01-09T06:52:15.663Z,44.00
2023-01-09T07:02:22.919Z,44.00
2023-01-09T07:12:29.917Z,44.00
2023-01-09T07:22:36.897Z,48.00
2023-01-09T07:32:44.239Z,48.00
2023-01-09T07:42:51.077Z,48.00
2023-01-09T07:52:58.332Z,48.00
2023-01-09T08:03:05.055Z,56.00
2023-01-09T08:13:12.088Z,56.00
2023-01-09T08:23:19.380Z,68.00
2023-01-09T08:33:26.270Z,88.00
2023-01-09T08:43:32.943Z,84.00
2023-01-09T08:53:40.493Z,96.00
2023-01-09T09:03:47.416Z,72.00
2023-01-09T09:13:54.641Z,104.00
2023-01-09T09:24:01.518Z,80.00
2023-01-09T09:34:08.739Z,108.00
2023-01-09T09:44:15.282Z,148.00
2023-01-09T09:54:22.706Z,116.00
2023-01-09T10:04:29.911Z,120.00
2023-01-09T10:14:36.612Z,124.00
2023-01-09T10:24:43.614Z,112.00
2023-01-09T10:34:50.855Z,164.00
2023-01-09T10:44:57.928Z,108.00
2023-01-09T10:55:04.943Z,80.00
2023-01-09T11:05:12.296Z,88.00
2023-01-09T11:15:19.369Z,72.00
2023-01-09T11:25:27.075Z,88.00
2023-01-09T11:35:35.080Z,136.00
2023-01-09T11:45:47.723Z,116.00
2023-01-09T11:55:54.097Z,196.00
2023-01-09T12:06:01.438Z,272.00
2023-01-09T12:16:08.494Z,228.00
2023-01-09T12:26:15.540Z,156.00
2023-01-09T12:36:23.147Z,204.00
2023-01-09T12:46:29.986Z,152.00
2023-01-09T12:56:37.445Z,152.00
2023-01-09T13:06:44.622Z,164.00
2023-01-09T13:16:52.155Z,136.00
2023-01-09T13:26:59.439Z,140.00
2023-01-09T13:37:06.964Z,132.00
2023-01-09T13:47:14.634Z,116.00
2023-01-09T13:57:21.828Z,88.00
2023-01-09T14:07:29.249Z,84.00
2023-01-09T14:17:35.756Z,60.00
2023-01-09T14:27:42.630Z,56.00
2023-01-09T14:37:49.795Z,60.00
2023-01-09T14:47:56.513Z,60.00
2023-01-09T14:58:04.275Z,56.00
2023-01-09T15:08:13.749Z,48.00
2023-01-09T15:18:20.756Z,44.00
2023-01-09T15:28:27.850Z,44.00
2023-01-09T15:38:34.726Z,40.00
2023-01-09T15:48:42.088Z,44.00
2023-01-09T15:58:49.127Z,44.00
2023-01-09T16:08:56.075Z,44.00
2023-01-09T16:19:03.393Z,44.00
2023-01-09T16:29:10.247Z,40.00
2023-01-09T16:39:17.348Z,40.00
2023-01-09T16:49:25.420Z,44.00
2023-01-09T16:59:32.645Z,44.00
2023-01-09T17:09:39.558Z,40.00
2023-01-09T17:19:46.260Z,44.00
2023-01-09T17:29:53.507Z,0.00
2023-01-09T17:40:00.596Z,0.00
2023-01-09T17:50:07.448Z,0.00
2023-01-09T18:00:14.771Z,0.00
2023-01-09T18:10:21.696Z,0.00
2023-01-09T18:20:28.441Z,0.00
2023-01-09T18:30:35.583Z,0.00
2023-01-09T18:40:41.729Z,0.00
2023-01-09T18:50:49.889Z,0.00
2023-01-09T19:00:56.973Z,0.00
2023-01-09T19:11:04.813Z,0.00
2023-01-09T19:21:12.358Z,0.00
2023-01-09T19:31:19.784Z,0.00
2023-01-09T19:41:27.010Z,0.00
2023-01-09T19:51:34.442Z,0.00
2023-01-09T20:01:40.872Z,0.00
2023-01-09T20:11:48.142Z,0.00
2023-01-09T20:21:55.240Z,0.00
2023-01-09T20:32:02.914Z,0.00
2023-01-09T20:42:10.334Z,0.00
2023-01-09T20:52:17.634Z,0.00
2023-01-09T21:02:24.615Z,0.00
2023-01-09T21:12:31.240Z,0.00
2023-01-09T21:22:38.649Z,0.00
2023-01-09T21:32:45.868Z,0.00
2023-01-09T21:42:52.711Z,0.00
2023-01-09T21:52:59.494Z,0.00
2023-01-09T22:03:05.761Z,0.00
2023-01-09T22:13:12.533Z,0.00
2023-01-09T22:23:20.155Z,0.00
2023-01-09T22:33:26.838Z,0.00
2023-01-09T22:43:33.804Z,0.00
2023-01-09T22:53:40.881Z,0.00
2023-01-09T23:03:48.066Z,0.00
2023-01-09T23:13:55.080Z,0.00
2023-01-09T23:24:01.947Z,0.00
2023-01-09T23:34:08.828Z,0.00
2023-01-09T23:44:15.732Z,0.00
2023-01-09T23:54:22.378Z,0.00
